sensor_id;sensor_type;location;lat;lon;timestamp;P1;durP1;ratioP1;P2;durP2;ratioP2
37543;SDS011;23385;52.038;20.322;2022-07-23T00:01:34;28.13;;;20.95;;
37543;SDS011;23385;52.038;20.322;2022-07-23T00:04:00;30.13;;;22.52;;
37543;SDS011;23385;52.038;20.322;2022-07-23T00:06:25;32.05;;;22.50;;
37543;SDS011;23385;52.038;20.322;2022-07-23T00:08:51;29.02;;;21.80;;
37543;SDS011;23385;52.038;20.322;2022-07-23T00:11:17;29.45;;;21.38;;
37543;SDS011;23385;52.038;20.322;2022-07-23T00:13:43;31.45;;;24.20;;
37543;SDS011;23385;52.038;20.322;2022-07-23T00:16:10;28.75;;;22.00;;
37543;SDS011;23385;52.038;20.322;2022-07-23T00:18:36;28.92;;;22.58;;
37543;SDS011;23385;52.038;20.322;2022-07-23T00:21:02;30.27;;;22.65;;
37543;SDS011;23385;52.038;20.322;2022-07-23T00:23:27;30.70;;;23.15;;
37543;SDS011;23385;52.038;20.322;2022-07-23T00:25:54;26.95;;;21.83;;
37543;SDS011;23385;52.038;20.322;2022-07-23T00:28:20;29.63;;;23.50;;
37543;SDS011;23385;52.038;20.322;2022-07-23T00:30:46;31.52;;;22.27;;
37543;SDS011;23385;52.038;20.322;2022-07-23T00:33:12;31.02;;;21.50;;
37543;SDS011;23385;52.038;20.322;2022-07-23T00:35:38;26.83;;;23.23;;
37543;SDS011;23385;52.038;20.322;2022-07-23T00:38:08;27.00;;;23.60;;
37543;SDS011;23385;52.038;20.322;2022-07-23T00:40:35;30.43;;;24.97;;
37543;SDS011;23385;52.038;20.322;2022-07-23T00:43:01;26.92;;;23.67;;
37543;SDS011;23385;52.038;20.322;2022-07-23T00:45:28;32.53;;;25.67;;
37543;SDS011;23385;52.038;20.322;2022-07-23T00:47:54;28.87;;;23.70;;
37543;SDS011;23385;52.038;20.322;2022-07-23T00:50:20;32.93;;;24.23;;
37543;SDS011;23385;52.038;20.322;2022-07-23T00:52:46;25.55;;;22.70;;
37543;SDS011;23385;52.038;20.322;2022-07-23T00:55:12;25.17;;;20.90;;
37543;SDS011;23385;52.038;20.322;2022-07-23T00:57:39;26.20;;;20.15;;
37543;SDS011;23385;52.038;20.322;2022-07-23T01:00:06;27.90;;;22.37;;
37543;SDS011;23385;52.038;20.322;2022-07-23T01:02:34;26.10;;;21.97;;
37543;SDS011;23385;52.038;20.322;2022-07-23T01:05:00;31.07;;;25.00;;
37543;SDS011;23385;52.038;20.322;2022-07-23T01:07:26;32.70;;;24.97;;
37543;SDS011;23385;52.038;20.322;2022-07-23T01:09:53;27.20;;;22.47;;
37543;SDS011;23385;52.038;20.322;2022-07-23T01:12:19;27.30;;;21.97;;
37543;SDS011;23385;52.038;20.322;2022-07-23T01:14:52;28.93;;;25.83;;
37543;SDS011;23385;52.038;20.322;2022-07-23T01:17:25;27.50;;;23.63;;
37543;SDS011;23385;52.038;20.322;2022-07-23T01:19:51;27.10;;;23.53;;
37543;SDS011;23385;52.038;20.322;2022-07-23T01:22:17;29.37;;;22.33;;
37543;SDS011;23385;52.038;20.322;2022-07-23T01:24:44;32.40;;;23.23;;
37543;SDS011;23385;52.038;20.322;2022-07-23T01:27:10;27.97;;;23.80;;
37543;SDS011;23385;52.038;20.322;2022-07-23T01:29:37;26.37;;;21.53;;
37543;SDS011;23385;52.038;20.322;2022-07-23T01:32:04;26.63;;;20.67;;
37543;SDS011;23385;52.038;20.322;2022-07-23T01:34:30;24.73;;;21.37;;
37543;SDS011;23385;52.038;20.322;2022-07-23T01:36:56;25.57;;;21.50;;
37543;SDS011;23385;52.038;20.322;2022-07-23T01:39:22;26.53;;;21.67;;
37543;SDS011;23385;52.038;20.322;2022-07-23T01:41:47;24.67;;;20.87;;
37543;SDS011;23385;52.038;20.322;2022-07-23T01:44:13;23.63;;;21.13;;
37543;SDS011;23385;52.038;20.322;2022-07-23T01:46:39;28.00;;;20.53;;
37543;SDS011;23385;52.038;20.322;2022-07-23T01:49:04;23.13;;;20.53;;
37543;SDS011;23385;52.038;20.322;2022-07-23T01:51:30;26.10;;;20.30;;
37543;SDS011;23385;52.038;20.322;2022-07-23T01:53:57;25.20;;;19.63;;
37543;SDS011;23385;52.038;20.322;2022-07-23T01:56:23;28.13;;;18.80;;
37543;SDS011;23385;52.038;20.322;2022-07-23T01:58:49;20.83;;;17.87;;
37543;SDS011;23385;52.038;20.322;2022-07-23T02:01:15;22.27;;;19.33;;
37543;SDS011;23385;52.038;20.322;2022-07-23T02:03:41;22.97;;;20.37;;
37543;SDS011;23385;52.038;20.322;2022-07-23T02:06:07;22.87;;;18.23;;
37543;SDS011;23385;52.038;20.322;2022-07-23T02:08:33;20.53;;;18.30;;
37543;SDS011;23385;52.038;20.322;2022-07-23T02:10:58;21.97;;;17.80;;
37543;SDS011;23385;52.038;20.322;2022-07-23T02:18:35;21.13;;;18.90;;
37543;SDS011;23385;52.038;20.322;2022-07-23T02:21:01;25.47;;;19.17;;
37543;SDS011;23385;52.038;20.322;2022-07-23T02:23:26;23.37;;;20.40;;
37543;SDS011;23385;52.038;20.322;2022-07-23T02:25:52;22.70;;;18.10;;
37543;SDS011;23385;52.038;20.322;2022-07-23T02:28:18;22.13;;;19.63;;
37543;SDS011;23385;52.038;20.322;2022-07-23T02:30:45;19.70;;;17.60;;
37543;SDS011;23385;52.038;20.322;2022-07-23T02:33:10;21.13;;;17.97;;
37543;SDS011;23385;52.038;20.322;2022-07-23T02:35:36;22.83;;;17.43;;
37543;SDS011;23385;52.038;20.322;2022-07-23T02:38:02;21.20;;;17.43;;
37543;SDS011;23385;52.038;20.322;2022-07-23T02:40:28;19.37;;;17.33;;
37543;SDS011;23385;52.038;20.322;2022-07-23T02:42:53;18.63;;;16.70;;
37543;SDS011;23385;52.038;20.322;2022-07-23T02:45:19;20.50;;;16.23;;
37543;SDS011;23385;52.038;20.322;2022-07-23T02:47:45;17.93;;;15.13;;
37543;SDS011;23385;52.038;20.322;2022-07-23T02:50:11;18.83;;;15.53;;
37543;SDS011;23385;52.038;20.322;2022-07-23T02:52:38;21.60;;;19.03;;
37543;SDS011;23385;52.038;20.322;2022-07-23T02:55:04;20.63;;;18.47;;
37543;SDS011;23385;52.038;20.322;2022-07-23T02:57:31;20.10;;;17.97;;
37543;SDS011;23385;52.038;20.322;2022-07-23T02:59:57;20.03;;;17.63;;
37543;SDS011;23385;52.038;20.322;2022-07-23T03:02:23;24.10;;;18.50;;
37543;SDS011;23385;52.038;20.322;2022-07-23T03:04:49;20.07;;;17.80;;
37543;SDS011;23385;52.038;20.322;2022-07-23T03:07:15;24.23;;;19.37;;
37543;SDS011;23385;52.038;20.322;2022-07-23T03:09:44;25.37;;;19.37;;
37543;SDS011;23385;52.038;20.322;2022-07-23T03:12:11;22.43;;;18.57;;
37543;SDS011;23385;52.038;20.322;2022-07-23T03:14:37;22.73;;;19.07;;
37543;SDS011;23385;52.038;20.322;2022-07-23T03:17:04;22.00;;;17.77;;
37543;SDS011;23385;52.038;20.322;2022-07-23T03:19:31;20.93;;;18.77;;
37543;SDS011;23385;52.038;20.322;2022-07-23T03:21:58;27.03;;;20.13;;
37543;SDS011;23385;52.038;20.322;2022-07-23T03:24:24;28.73;;;19.63;;
37543;SDS011;23385;52.038;20.322;2022-07-23T03:27:10;32.67;;;22.60;;
37543;SDS011;23385;52.038;20.322;2022-07-23T03:29:36;25.93;;;20.80;;
37543;SDS011;23385;52.038;20.322;2022-07-23T03:32:02;50.53;;;28.03;;
37543;SDS011;23385;52.038;20.322;2022-07-23T03:34:29;50.27;;;30.83;;
37543;SDS011;23385;52.038;20.322;2022-07-23T03:36:57;50.73;;;27.00;;
37543;SDS011;23385;52.038;20.322;2022-07-23T03:39:23;52.90;;;29.97;;
37543;SDS011;23385;52.038;20.322;2022-07-23T03:41:49;43.90;;;28.40;;
37543;SDS011;23385;52.038;20.322;2022-07-23T03:44:14;52.93;;;30.23;;
37543;SDS011;23385;52.038;20.322;2022-07-23T03:46:40;46.87;;;26.60;;
37543;SDS011;23385;52.038;20.322;2022-07-23T03:49:06;31.50;;;24.23;;
37543;SDS011;23385;52.038;20.322;2022-07-23T03:51:32;34.93;;;24.60;;
37543;SDS011;23385;52.038;20.322;2022-07-23T03:53:58;33.20;;;24.33;;
37543;SDS011;23385;52.038;20.322;2022-07-23T03:56:24;31.87;;;22.13;;
37543;SDS011;23385;52.038;20.322;2022-07-23T03:58:49;22.43;;;20.13;;
37543;SDS011;23385;52.038;20.322;2022-07-23T04:01:15;23.70;;;20.53;;
37543;SDS011;23385;52.038;20.322;2022-07-23T04:03:41;24.53;;;18.93;;
37543;SDS011;23385;52.038;20.322;2022-07-23T04:06:07;23.00;;;20.70;;
37543;SDS011;23385;52.038;20.322;2022-07-23T04:08:32;23.63;;;19.80;;
37543;SDS011;23385;52.038;20.322;2022-07-23T04:10:58;23.07;;;20.50;;
37543;SDS011;23385;52.038;20.322;2022-07-23T04:13:24;25.47;;;20.33;;
37543;SDS011;23385;52.038;20.322;2022-07-23T04:15:50;21.70;;;19.30;;
37543;SDS011;23385;52.038;20.322;2022-07-23T04:18:16;22.57;;;18.20;;
37543;SDS011;23385;52.038;20.322;2022-07-23T04:20:45;23.37;;;18.13;;
37543;SDS011;23385;52.038;20.322;2022-07-23T04:23:11;21.60;;;18.90;;
37543;SDS011;23385;52.038;20.322;2022-07-23T04:25:37;29.87;;;19.73;;
37543;SDS011;23385;52.038;20.322;2022-07-23T04:28:03;21.93;;;19.37;;
37543;SDS011;23385;52.038;20.322;2022-07-23T04:30:29;26.60;;;21.43;;
37543;SDS011;23385;52.038;20.322;2022-07-23T04:32:55;24.00;;;21.10;;
37543;SDS011;23385;52.038;20.322;2022-07-23T04:35:20;22.63;;;20.13;;
37543;SDS011;23385;52.038;20.322;2022-07-23T04:37:46;28.60;;;21.70;;
37543;SDS011;23385;52.038;20.322;2022-07-23T04:40:12;24.23;;;21.30;;
37543;SDS011;23385;52.038;20.322;2022-07-23T04:42:38;26.90;;;22.33;;
37543;SDS011;23385;52.038;20.322;2022-07-23T04:45:05;25.27;;;22.67;;
37543;SDS011;23385;52.038;20.322;2022-07-23T04:47:31;22.50;;;20.30;;
37543;SDS011;23385;52.038;20.322;2022-07-23T04:49:58;27.77;;;21.70;;
37543;SDS011;23385;52.038;20.322;2022-07-23T04:52:24;25.95;;;22.40;;
37543;SDS011;23385;52.038;20.322;2022-07-23T04:54:50;24.58;;;19.83;;
37543;SDS011;23385;52.038;20.322;2022-07-23T04:57:15;26.20;;;22.02;;
37543;SDS011;23385;52.038;20.322;2022-07-23T04:59:41;25.35;;;22.17;;
37543;SDS011;23385;52.038;20.322;2022-07-23T05:02:07;23.55;;;21.15;;
37543;SDS011;23385;52.038;20.322;2022-07-23T05:04:33;24.55;;;20.50;;
37543;SDS011;23385;52.038;20.322;2022-07-23T05:06:59;25.25;;;20.85;;
37543;SDS011;23385;52.038;20.322;2022-07-23T05:09:24;26.33;;;21.00;;
37543;SDS011;23385;52.038;20.322;2022-07-23T05:11:51;21.75;;;19.52;;
37543;SDS011;23385;52.038;20.322;2022-07-23T05:14:17;27.70;;;21.88;;
37543;SDS011;23385;52.038;20.322;2022-07-23T05:16:46;23.52;;;20.90;;
37543;SDS011;23385;52.038;20.322;2022-07-23T05:19:12;26.48;;;20.00;;
37543;SDS011;23385;52.038;20.322;2022-07-23T05:21:39;22.45;;;20.10;;
37543;SDS011;23385;52.038;20.322;2022-07-23T05:24:05;21.30;;;19.08;;
37543;SDS011;23385;52.038;20.322;2022-07-23T05:26:31;23.05;;;19.17;;
37543;SDS011;23385;52.038;20.322;2022-07-23T05:28:57;20.38;;;18.27;;
37543;SDS011;23385;52.038;20.322;2022-07-23T05:31:22;21.33;;;19.20;;
37543;SDS011;23385;52.038;20.322;2022-07-23T05:33:48;22.65;;;19.45;;
37543;SDS011;23385;52.038;20.322;2022-07-23T05:36:14;20.55;;;18.35;;
37543;SDS011;23385;52.038;20.322;2022-07-23T05:38:39;20.50;;;18.30;;
37543;SDS011;23385;52.038;20.322;2022-07-23T05:41:06;23.10;;;19.17;;
37543;SDS011;23385;52.038;20.322;2022-07-23T05:43:32;20.75;;;18.63;;
37543;SDS011;23385;52.038;20.322;2022-07-23T05:45:58;19.70;;;17.15;;
37543;SDS011;23385;52.038;20.322;2022-07-23T05:48:24;23.42;;;17.05;;
37543;SDS011;23385;52.038;20.322;2022-07-23T05:50:50;27.48;;;18.08;;
37543;SDS011;23385;52.038;20.322;2022-07-23T05:53:15;23.02;;;16.40;;
37543;SDS011;23385;52.038;20.322;2022-07-23T05:55:41;20.40;;;16.20;;
37543;SDS011;23385;52.038;20.322;2022-07-23T05:58:07;22.55;;;16.48;;
37543;SDS011;23385;52.038;20.322;2022-07-23T06:00:34;20.73;;;16.45;;
37543;SDS011;23385;52.038;20.322;2022-07-23T06:03:00;21.48;;;16.30;;
37543;SDS011;23385;52.038;20.322;2022-07-23T06:05:25;17.40;;;15.60;;
37543;SDS011;23385;52.038;20.322;2022-07-23T06:07:52;17.35;;;15.60;;
37543;SDS011;23385;52.038;20.322;2022-07-23T06:10:19;17.00;;;15.40;;
37543;SDS011;23385;52.038;20.322;2022-07-23T06:12:44;19.08;;;15.90;;
37543;SDS011;23385;52.038;20.322;2022-07-23T06:15:10;18.88;;;15.32;;
37543;SDS011;23385;52.038;20.322;2022-07-23T06:17:36;17.02;;;14.70;;
37543;SDS011;23385;52.038;20.322;2022-07-23T06:20:04;17.73;;;15.77;;
37543;SDS011;23385;52.038;20.322;2022-07-23T06:22:34;20.67;;;14.88;;
37543;SDS011;23385;52.038;20.322;2022-07-23T06:25:00;16.20;;;14.73;;
37543;SDS011;23385;52.038;20.322;2022-07-23T06:27:26;17.58;;;15.25;;
37543;SDS011;23385;52.038;20.322;2022-07-23T06:29:52;17.77;;;13.30;;
37543;SDS011;23385;52.038;20.322;2022-07-23T06:32:18;17.00;;;14.38;;
37543;SDS011;23385;52.038;20.322;2022-07-23T06:34:44;15.90;;;14.23;;
37543;SDS011;23385;52.038;20.322;2022-07-23T06:37:10;18.67;;;13.20;;
37543;SDS011;23385;52.038;20.322;2022-07-23T06:39:36;13.52;;;12.13;;
37543;SDS011;23385;52.038;20.322;2022-07-23T06:42:02;17.52;;;11.27;;
37543;SDS011;23385;52.038;20.322;2022-07-23T06:44:27;11.93;;;10.40;;
37543;SDS011;23385;52.038;20.322;2022-07-23T06:46:53;11.45;;;10.30;;
37543;SDS011;23385;52.038;20.322;2022-07-23T06:49:19;10.48;;;9.48;;
37543;SDS011;23385;52.038;20.322;2022-07-23T06:51:46;11.35;;;10.15;;
37543;SDS011;23385;52.038;20.322;2022-07-23T06:54:18;19.38;;;10.20;;
37543;SDS011;23385;52.038;20.322;2022-07-23T06:56:44;10.57;;;9.18;;
37543;SDS011;23385;52.038;20.322;2022-07-23T06:59:10;10.60;;;9.55;;
37543;SDS011;23385;52.038;20.322;2022-07-23T07:01:36;17.25;;;9.60;;
37543;SDS011;23385;52.038;20.322;2022-07-23T07:04:02;10.50;;;9.50;;
37543;SDS011;23385;52.038;20.322;2022-07-23T07:06:27;10.40;;;9.20;;
37543;SDS011;23385;52.038;20.322;2022-07-23T07:08:53;10.73;;;9.43;;
37543;SDS011;23385;52.038;20.322;2022-07-23T07:11:22;10.45;;;9.45;;
37543;SDS011;23385;52.038;20.322;2022-07-23T07:13:52;13.15;;;9.50;;
37543;SDS011;23385;52.038;20.322;2022-07-23T07:16:25;10.55;;;9.52;;
37543;SDS011;23385;52.038;20.322;2022-07-23T07:18:54;10.65;;;9.48;;
37543;SDS011;23385;52.038;20.322;2022-07-23T07:21:20;14.27;;;9.43;;
37543;SDS011;23385;52.038;20.322;2022-07-23T07:23:46;9.20;;;8.25;;
37543;SDS011;23385;52.038;20.322;2022-07-23T07:26:12;10.32;;;9.23;;
37543;SDS011;23385;52.038;20.322;2022-07-23T07:28:37;12.80;;;9.77;;
37543;SDS011;23385;52.038;20.322;2022-07-23T07:31:03;9.30;;;8.18;;
37543;SDS011;23385;52.038;20.322;2022-07-23T07:33:29;10.68;;;9.05;;
37543;SDS011;23385;52.038;20.322;2022-07-23T07:35:54;9.30;;;8.30;;
37543;SDS011;23385;52.038;20.322;2022-07-23T07:38:20;10.38;;;8.57;;
37543;SDS011;23385;52.038;20.322;2022-07-23T07:40:46;8.93;;;8.13;;
37543;SDS011;23385;52.038;20.322;2022-07-23T07:43:11;9.10;;;8.20;;
37543;SDS011;23385;52.038;20.322;2022-07-23T07:45:37;16.80;;;8.85;;
37543;SDS011;23385;52.038;20.322;2022-07-23T07:48:03;10.02;;;8.43;;
37543;SDS011;23385;52.038;20.322;2022-07-23T07:50:30;9.40;;;8.43;;
37543;SDS011;23385;52.038;20.322;2022-07-23T07:52:55;11.45;;;8.13;;
37543;SDS011;23385;52.038;20.322;2022-07-23T07:55:22;10.35;;;8.63;;
37543;SDS011;23385;52.038;20.322;2022-07-23T07:57:47;12.32;;;8.13;;
37543;SDS011;23385;52.038;20.322;2022-07-23T08:00:13;9.35;;;8.40;;
37543;SDS011;23385;52.038;20.322;2022-07-23T08:02:40;9.57;;;8.57;;
37543;SDS011;23385;52.038;20.322;2022-07-23T08:05:07;9.55;;;8.65;;
37543;SDS011;23385;52.038;20.322;2022-07-23T08:07:33;11.05;;;8.40;;
37543;SDS011;23385;52.038;20.322;2022-07-23T08:10:00;9.63;;;8.18;;
37543;SDS011;23385;52.038;20.322;2022-07-23T08:12:37;8.93;;;7.80;;
37543;SDS011;23385;52.038;20.322;2022-07-23T08:15:12;10.90;;;7.82;;
37543;SDS011;23385;52.038;20.322;2022-07-23T08:17:39;8.98;;;8.18;;
37543;SDS011;23385;52.038;20.322;2022-07-23T08:20:06;12.55;;;8.32;;
37543;SDS011;23385;52.038;20.322;2022-07-23T08:22:46;12.18;;;8.02;;
37543;SDS011;23385;52.038;20.322;2022-07-23T08:25:27;11.65;;;9.07;;
37543;SDS011;23385;52.038;20.322;2022-07-23T08:27:54;9.20;;;8.30;;
37543;SDS011;23385;52.038;20.322;2022-07-23T08:30:21;10.40;;;8.80;;
37543;SDS011;23385;52.038;20.322;2022-07-23T08:32:52;9.57;;;8.13;;
37543;SDS011;23385;52.038;20.322;2022-07-23T08:35:23;11.15;;;8.32;;
37543;SDS011;23385;52.038;20.322;2022-07-23T08:37:50;9.05;;;8.10;;
37543;SDS011;23385;52.038;20.322;2022-07-23T08:40:16;13.32;;;8.30;;
37543;SDS011;23385;52.038;20.322;2022-07-23T08:42:42;9.60;;;8.13;;
37543;SDS011;23385;52.038;20.322;2022-07-23T08:45:08;10.40;;;7.97;;
37543;SDS011;23385;52.038;20.322;2022-07-23T08:47:35;8.73;;;7.88;;
37543;SDS011;23385;52.038;20.322;2022-07-23T08:50:02;9.18;;;8.27;;
37543;SDS011;23385;52.038;20.322;2022-07-23T08:52:28;10.02;;;8.30;;
37543;SDS011;23385;52.038;20.322;2022-07-23T08:54:56;10.13;;;8.35;;
37543;SDS011;23385;52.038;20.322;2022-07-23T08:57:23;8.32;;;7.57;;
37543;SDS011;23385;52.038;20.322;2022-07-23T08:59:48;10.05;;;8.40;;
37543;SDS011;23385;52.038;20.322;2022-07-23T09:02:14;12.27;;;8.85;;
37543;SDS011;23385;52.038;20.322;2022-07-23T09:04:40;16.90;;;9.63;;
37543;SDS011;23385;52.038;20.322;2022-07-23T09:07:07;8.82;;;7.97;;
37543;SDS011;23385;52.038;20.322;2022-07-23T09:09:33;14.25;;;8.68;;
37543;SDS011;23385;52.038;20.322;2022-07-23T09:12:09;13.55;;;8.48;;
37543;SDS011;23385;52.038;20.322;2022-07-23T09:14:36;10.55;;;7.85;;
37543;SDS011;23385;52.038;20.322;2022-07-23T09:17:12;9.95;;;8.43;;
37543;SDS011;23385;52.038;20.322;2022-07-23T09:19:40;10.55;;;8.45;;
37543;SDS011;23385;52.038;20.322;2022-07-23T09:22:24;10.55;;;7.82;;
37543;SDS011;23385;52.038;20.322;2022-07-23T09:27:52;9.73;;;7.75;;
37543;SDS011;23385;52.038;20.322;2022-07-23T09:30:28;11.00;;;7.63;;
37543;SDS011;23385;52.038;20.322;2022-07-23T09:35:44;9.93;;;8.10;;
37543;SDS011;23385;52.038;20.322;2022-07-23T09:38:12;11.80;;;7.95;;
37543;SDS011;23385;52.038;20.322;2022-07-23T09:40:38;8.57;;;7.78;;
37543;SDS011;23385;52.038;20.322;2022-07-23T09:43:03;9.25;;;7.95;;
37543;SDS011;23385;52.038;20.322;2022-07-23T09:45:29;9.32;;;8.43;;
37543;SDS011;23385;52.038;20.322;2022-07-23T09:50:37;8.88;;;8.00;;
37543;SDS011;23385;52.038;20.322;2022-07-23T09:53:04;10.50;;;8.00;;
37543;SDS011;23385;52.038;20.322;2022-07-23T09:55:34;14.00;;;7.55;;
37543;SDS011;23385;52.038;20.322;2022-07-23T09:58:07;11.50;;;7.75;;
37543;SDS011;23385;52.038;20.322;2022-07-23T10:00:39;8.70;;;7.78;;
37543;SDS011;23385;52.038;20.322;2022-07-23T10:03:06;11.98;;;7.90;;
37543;SDS011;23385;52.038;20.322;2022-07-23T10:05:32;9.52;;;7.57;;
37543;SDS011;23385;52.038;20.322;2022-07-23T10:08:01;9.48;;;6.85;;
37543;SDS011;23385;52.038;20.322;2022-07-23T10:10:27;9.50;;;7.00;;
37543;SDS011;23385;52.038;20.322;2022-07-23T10:12:56;9.23;;;7.28;;
37543;SDS011;23385;52.038;20.322;2022-07-23T10:15:46;10.50;;;7.25;;
37543;SDS011;23385;52.038;20.322;2022-07-23T10:18:19;10.38;;;7.30;;
37543;SDS011;23385;52.038;20.322;2022-07-23T10:20:46;7.57;;;6.85;;
37543;SDS011;23385;52.038;20.322;2022-07-23T10:23:22;11.13;;;7.30;;
37543;SDS011;23385;52.038;20.322;2022-07-23T10:37:39;9.95;;;6.95;;
37543;SDS011;23385;52.038;20.322;2022-07-23T10:42:42;11.73;;;7.57;;
37543;SDS011;23385;52.038;20.322;2022-07-23T10:45:31;8.93;;;7.10;;
37543;SDS011;23385;52.038;20.322;2022-07-23T10:48:17;13.30;;;7.47;;
37543;SDS011;23385;52.038;20.322;2022-07-23T10:59:22;8.25;;;7.15;;
37543;SDS011;23385;52.038;20.322;2022-07-23T11:01:48;9.75;;;6.97;;
37543;SDS011;23385;52.038;20.322;2022-07-23T11:04:15;7.88;;;7.07;;
37543;SDS011;23385;52.038;20.322;2022-07-23T11:17:58;8.05;;;7.35;;
37543;SDS011;23385;52.038;20.322;2022-07-23T11:20:26;7.88;;;7.07;;
37543;SDS011;23385;52.038;20.322;2022-07-23T11:22:56;8.77;;;6.97;;
37543;SDS011;23385;52.038;20.322;2022-07-23T11:28:16;10.48;;;7.03;;
37543;SDS011;23385;52.038;20.322;2022-07-23T11:30:45;8.93;;;6.93;;
37543;SDS011;23385;52.038;20.322;2022-07-23T11:33:16;8.95;;;6.80;;
37543;SDS011;23385;52.038;20.322;2022-07-23T11:36:00;8.80;;;6.97;;
37543;SDS011;23385;52.038;20.322;2022-07-23T11:38:31;9.77;;;6.50;;
37543;SDS011;23385;52.038;20.322;2022-07-23T11:40:57;7.78;;;6.70;;
37543;SDS011;23385;52.038;20.322;2022-07-23T11:43:26;7.47;;;6.78;;
37543;SDS011;23385;52.038;20.322;2022-07-23T11:45:53;12.38;;;7.40;;
37543;SDS011;23385;52.038;20.322;2022-07-23T11:48:26;8.07;;;6.82;;
37543;SDS011;23385;52.038;20.322;2022-07-23T11:50:55;7.63;;;6.30;;
37543;SDS011;23385;52.038;20.322;2022-07-23T11:53:32;9.68;;;7.00;;
37543;SDS011;23385;52.038;20.322;2022-07-23T11:56:17;9.80;;;6.90;;
37543;SDS011;23385;52.038;20.322;2022-07-23T11:59:03;8.38;;;6.45;;
37543;SDS011;23385;52.038;20.322;2022-07-23T12:01:30;14.82;;;6.95;;
37543;SDS011;23385;52.038;20.322;2022-07-23T12:04:04;11.30;;;7.45;;
37543;SDS011;23385;52.038;20.322;2022-07-23T12:06:30;9.35;;;6.90;;
37543;SDS011;23385;52.038;20.322;2022-07-23T12:09:03;7.25;;;6.55;;
37543;SDS011;23385;52.038;20.322;2022-07-23T12:11:31;8.82;;;7.30;;
37543;SDS011;23385;52.038;20.322;2022-07-23T12:13:57;9.80;;;7.22;;
37543;SDS011;23385;52.038;20.322;2022-07-23T12:16:24;8.07;;;7.28;;
37543;SDS011;23385;52.038;20.322;2022-07-23T12:18:50;10.00;;;7.25;;
37543;SDS011;23385;52.038;20.322;2022-07-23T12:21:18;8.07;;;7.28;;
37543;SDS011;23385;52.038;20.322;2022-07-23T12:23:46;8.27;;;7.45;;
37543;SDS011;23385;52.038;20.322;2022-07-23T12:26:18;7.45;;;6.85;;
37543;SDS011;23385;52.038;20.322;2022-07-23T12:29:33;8.43;;;6.50;;
37543;SDS011;23385;52.038;20.322;2022-07-23T12:32:02;9.18;;;6.43;;
37543;SDS011;23385;52.038;20.322;2022-07-23T12:34:45;8.85;;;7.20;;
37543;SDS011;23385;52.038;20.322;2022-07-23T12:37:31;7.38;;;6.63;;
37543;SDS011;23385;52.038;20.322;2022-07-23T12:40:26;7.60;;;6.88;;
37543;SDS011;23385;52.038;20.322;2022-07-23T12:43:07;13.38;;;6.68;;
37543;SDS011;23385;52.038;20.322;2022-07-23T12:45:56;8.48;;;7.25;;
37543;SDS011;23385;52.038;20.322;2022-07-23T12:54:26;14.50;;;9.25;;
37543;SDS011;23385;52.038;20.322;2022-07-23T12:56:56;11.55;;;8.43;;
37543;SDS011;23385;52.038;20.322;2022-07-23T12:59:26;8.45;;;7.68;;
37543;SDS011;23385;52.038;20.322;2022-07-23T13:01:58;17.10;;;7.35;;
37543;SDS011;23385;52.038;20.322;2022-07-23T13:04:24;8.80;;;7.53;;
37543;SDS011;23385;52.038;20.322;2022-07-23T13:06:54;8.15;;;7.30;;
37543;SDS011;23385;52.038;20.322;2022-07-23T13:09:32;10.18;;;7.03;;
37543;SDS011;23385;52.038;20.322;2022-07-23T13:12:07;8.00;;;7.20;;
37543;SDS011;23385;52.038;20.322;2022-07-23T13:14:34;8.07;;;7.35;;
37543;SDS011;23385;52.038;20.322;2022-07-23T13:17:00;9.48;;;7.53;;
37543;SDS011;23385;52.038;20.322;2022-07-23T13:19:44;10.77;;;7.35;;
37543;SDS011;23385;52.038;20.322;2022-07-23T13:22:21;9.27;;;7.47;;
37543;SDS011;23385;52.038;20.322;2022-07-23T13:25:19;8.15;;;7.43;;
37543;SDS011;23385;52.038;20.322;2022-07-23T13:28:34;8.18;;;7.38;;
37543;SDS011;23385;52.038;20.322;2022-07-23T13:32:07;8.10;;;7.32;;
37543;SDS011;23385;52.038;20.322;2022-07-23T13:34:41;10.90;;;7.45;;
37543;SDS011;23385;52.038;20.322;2022-07-23T13:37:15;10.43;;;7.47;;
37543;SDS011;23385;52.038;20.322;2022-07-23T13:39:47;11.10;;;7.72;;
37543;SDS011;23385;52.038;20.322;2022-07-23T13:43:25;8.57;;;7.68;;
37543;SDS011;23385;52.038;20.322;2022-07-23T13:45:51;10.02;;;9.02;;
37543;SDS011;23385;52.038;20.322;2022-07-23T13:48:19;21.63;;;5.88;;
37543;SDS011;23385;52.038;20.322;2022-07-23T13:50:47;20.65;;;5.38;;
37543;SDS011;23385;52.038;20.322;2022-07-23T13:53:16;14.27;;;5.40;;
37543;SDS011;23385;52.038;20.322;2022-07-23T13:55:48;15.85;;;5.55;;
37543;SDS011;23385;52.038;20.322;2022-07-23T13:58:15;17.20;;;5.90;;
37543;SDS011;23385;52.038;20.322;2022-07-23T14:00:44;14.43;;;6.85;;
37543;SDS011;23385;52.038;20.322;2022-07-23T14:03:11;14.48;;;7.68;;
37543;SDS011;23385;52.038;20.322;2022-07-23T14:05:37;11.85;;;7.40;;
37543;SDS011;23385;52.038;20.322;2022-07-23T14:08:03;9.50;;;7.75;;
37543;SDS011;23385;52.038;20.322;2022-07-23T14:10:29;9.27;;;6.30;;
37543;SDS011;23385;52.038;20.322;2022-07-23T14:12:55;12.73;;;7.38;;
37543;SDS011;23385;52.038;20.322;2022-07-23T14:15:26;14.10;;;7.40;;
37543;SDS011;23385;52.038;20.322;2022-07-23T14:17:53;12.80;;;7.93;;
